Time;durP1;ratioP1;P1;durP2;ratioP2;P2;SDS_P1;SDS_P2;PMS_P1;PMS_P2;Temp;Humidity;BMP_temperature;BMP_pressure;BME280_temperature;BME280_humidity;BME280_pressure;Samples;Min_cycle;Max_cycle;Signal;HPM_P1;HPM_P2
2022/11/20 00:01:23;;;;;;;4.85;3.65;;;6.70;81.20;;;;;;5038700;28;20123;-60
2022/11/20 00:03:50;;;;;;;4.40;2.88;;;6.70;81.20;;;;;;5035834;28;20028;-62
2022/11/20 00:06:18;;;;;;;3.47;3.13;;;6.60;81.10;;;;;;5038086;28;20037;-62
2022/11/20 00:08:44;;;;;;;4.40;2.88;;;6.60;81.40;;;;;;5036905;28;20033;-62
2022/11/20 00:11:13;;;;;;;3.42;2.60;;;6.60;81.40;;;;;;5033928;28;20041;-62
2022/11/20 00:13:39;;;;;;;3.95;2.90;;;6.60;81.60;;;;;;5037072;28;20029;-61
2022/11/20 00:16:07;;;;;;;4.22;2.95;;;6.50;81.60;;;;;;5036031;28;20036;-60
2022/11/20 00:18:33;;;;;;;4.30;3.10;;;6.50;81.80;;;;;;5030343;28;20466;-62
2022/11/20 00:21:20;;;;;;;5.30;2.97;;;6.50;82.00;;;;;;5031356;28;20029;-61
2022/11/20 00:23:46;;;;;;;3.03;2.65;;;6.40;82.30;;;;;;5032256;28;20576;-61
2022/11/20 00:26:17;;;;;;;4.85;2.70;;;6.40;82.20;;;;;;5031523;28;20051;-60
2022/11/20 00:28:44;;;;;;;3.45;2.60;;;6.40;82.30;;;;;;5030641;28;20093;-61
2022/11/20 00:31:14;;;;;;;4.50;2.88;;;6.40;82.30;;;;;;5030461;28;20043;-61
2022/11/20 00:33:40;;;;;;;2.83;2.45;;;6.30;82.30;;;;;;5031245;28;20052;-61
2022/11/20 00:36:15;;;;;;;2.92;2.40;;;6.40;82.40;;;;;;5029829;28;20039;-60
2022/11/20 00:38:40;;;;;;;4.35;2.78;;;6.40;82.50;;;;;;5029183;28;20049;-60
2022/11/20 00:41:09;;;;;;;4.38;3.00;;;6.30;82.30;;;;;;5030201;28;20041;-61
2022/11/20 00:43:35;;;;;;;3.15;2.85;;;6.30;82.30;;;;;;5028542;28;20033;-61
2022/11/20 00:46:02;;;;;;;2.97;2.70;;;6.30;82.30;;;;;;5036517;28;20044;-61
2022/11/20 00:48:28;;;;;;;3.35;2.70;;;6.30;82.30;;;;;;5036389;28;20037;-61
2022/11/20 00:50:54;;;;;;;2.55;2.25;;;6.30;82.30;;;;;;5035927;28;20522;-61
2022/11/20 00:53:20;;;;;;;4.18;3.03;;;6.30;82.30;;;;;;5034969;28;20341;-61
2022/11/20 00:56:06;;;;;;;4.15;2.72;;;6.30;82.30;;;;;;5029534;28;20037;-60
2022/11/20 00:58:34;;;;;;;3.10;2.80;;;6.30;82.60;;;;;;5028425;28;20118;-59
2022/11/20 01:01:12;;;;;;;2.65;2.40;;;6.20;82.30;;;;;;5028640;28;20249;-61
2022/11/20 01:03:40;;;;;;;3.17;2.85;;;6.20;82.50;;;;;;5031473;28;20036;-61
2022/11/20 01:06:12;;;;;;;3.00;2.78;;;6.20;82.50;;;;;;5029910;28;20037;-59
2022/11/20 01:08:38;;;;;;;3.05;2.55;;;6.20;82.60;;;;;;5030372;28;20037;-60
2022/11/20 01:11:26;;;;;;;5.60;2.80;;;6.20;82.60;;;;;;5028745;28;20500;-60
2022/11/20 01:13:53;;;;;;;4.72;2.72;;;6.20;82.60;;;;;;5025534;28;20436;-61
2022/11/20 01:16:23;;;;;;;3.63;2.70;;;6.20;82.70;;;;;;5030427;28;20037;-61
2022/11/20 01:18:51;;;;;;;4.00;2.75;;;6.20;82.90;;;;;;5033149;28;20033;-61
2022/11/20 01:21:20;;;;;;;3.22;2.90;;;6.20;82.80;;;;;;5032025;28;20082;-61
2022/11/20 01:23:46;;;;;;;3.20;2.60;;;6.20;82.80;;;;;;5030730;28;20029;-61
2022/11/20 01:26:18;;;;;;;4.70;2.75;;;6.20;82.90;;;;;;5028468;28;20040;-61
2022/11/20 01:28:44;;;;;;;3.15;2.60;;;6.20;83.00;;;;;;5029855;28;20965;-61
2022/11/20 01:31:12;;;;;;;3.78;2.90;;;6.20;83.00;;;;;;5029487;28;20505;-61
2022/11/20 01:33:40;;;;;;;4.72;2.80;;;6.20;83.10;;;;;;5028626;28;20033;-60
2022/11/20 01:36:07;;;;;;;2.70;2.30;;;6.20;83.10;;;;;;5030715;28;20041;-61
2022/11/20 01:38:33;;;;;;;3.50;2.60;;;6.20;83.00;;;;;;5032681;28;20044;-60
2022/11/20 01:40:58;;;;;;;4.90;2.65;;;6.20;83.10;;;;;;5032501;28;20037;-60
2022/11/20 01:43:25;;;;;;;4.25;2.80;;;6.20;83.10;;;;;;5029564;28;20037;-61
2022/11/20 01:46:15;;;;;;;2.60;2.40;;;6.20;83.10;;;;;;5034013;28;20025;-61
2022/11/20 01:48:46;;;;;;;2.60;2.40;;;6.20;83.20;;;;;;5030778;28;20072;-61
2022/11/20 01:51:19;;;;;;;3.17;2.55;;;6.20;83.10;;;;;;5027986;28;20045;-62
2022/11/20 01:53:45;;;;;;;2.72;2.53;;;6.20;83.10;;;;;;5029876;28;20044;-62
2022/11/20 01:56:13;;;;;;;2.88;2.67;;;6.20;83.00;;;;;;5032682;28;20041;-61
2022/11/20 01:58:46;;;;;;;3.17;2.33;;;6.20;83.10;;;;;;5027477;28;20061;-63
2022/11/20 02:01:13;;;;;;;3.53;2.55;;;6.20;83.20;;;;;;5030121;28;20049;-61
2022/11/20 02:03:39;;;;;;;2.78;2.47;;;6.20;83.20;;;;;;5031038;28;20068;-61
2022/11/20 02:06:07;;;;;;;3.40;2.40;;;6.20;83.30;;;;;;5032156;28;20502;-61
2022/11/20 02:08:33;;;;;;;2.70;2.50;;;6.30;83.30;;;;;;5028564;28;20139;-61
2022/11/20 02:10:59;;;;;;;3.58;2.60;;;6.30;83.50;;;;;;5028457;28;21174;-60
2022/11/20 02:13:43;;;;;;;3.20;2.60;;;6.30;83.60;;;;;;5029820;28;20037;-61
2022/11/20 02:16:16;;;;;;;3.40;2.88;;;6.30;83.60;;;;;;5030485;28;20353;-61
2022/11/20 02:18:43;;;;;;;3.60;2.75;;;6.30;83.90;;;;;;5028368;28;20068;-61
2022/11/20 02:21:47;;;;;;;3.30;2.83;;;6.30;83.80;;;;;;5029092;28;20445;-61
2022/11/20 02:24:15;;;;;;;4.97;3.00;;;6.30;84.00;;;;;;5026917;28;20213;-61
2022/11/20 02:26:55;;;;;;;3.20;2.85;;;6.30;83.70;;;;;;5027978;28;20291;-60
2022/11/20 02:29:46;;;;;;;4.38;2.92;;;6.40;83.90;;;;;;5030414;28;20500;-60
2022/11/20 02:32:19;;;;;;;3.38;2.90;;;6.40;83.90;;;;;;5028892;28;21875;-62
2022/11/20 02:34:45;;;;;;;4.40;2.80;;;6.40;83.90;;;;;;5025936;28;20037;-60
2022/11/20 02:37:11;;;;;;;5.63;3.03;;;6.40;83.80;;;;;;5028067;28;20055;-60
2022/11/20 02:39:36;;;;;;;3.35;3.00;;;6.40;83.70;;;;;;5031089;28;20420;-62
2022/11/20 02:42:02;;;;;;;2.78;2.50;;;6.40;83.70;;;;;;5031018;28;20266;-61
2022/11/20 02:44:28;;;;;;;2.70;2.50;;;6.50;83.80;;;;;;5030783;28;20508;-60
2022/11/20 02:46:56;;;;;;;3.30;2.85;;;6.50;83.80;;;;;;5033366;28;20042;-61
2022/11/20 02:49:22;;;;;;;5.07;3.10;;;6.50;83.70;;;;;;5033503;28;20044;-61
2022/11/20 02:51:47;;;;;;;2.90;2.60;;;6.50;83.80;;;;;;5034126;28;20033;-62
2022/11/20 02:54:13;;;;;;;4.15;2.90;;;6.50;83.70;;;;;;5028351;28;20033;-62
2022/11/20 02:56:39;;;;;;;3.45;2.60;;;6.60;83.70;;;;;;5030026;28;20147;-60
2022/11/20 02:59:05;;;;;;;4.47;2.78;;;6.50;83.40;;;;;;5034493;28;20233;-62
2022/11/20 03:01:31;;;;;;;3.67;3.30;;;6.60;83.40;;;;;;5032732;28;20037;-61
2022/11/20 03:03:56;;;;;;;3.30;2.88;;;6.60;83.30;;;;;;5030293;28;20583;-60
2022/11/20 03:06:22;;;;;;;4.55;2.95;;;6.60;83.30;;;;;;5034060;28;20058;-61
2022/11/20 03:08:48;;;;;;;4.35;3.00;;;6.60;83.20;;;;;;5038601;28;20120;-60
2022/11/20 03:11:13;;;;;;;3.40;3.10;;;6.60;83.20;;;;;;5034919;28;20037;-60
2022/11/20 03:13:39;;;;;;;3.50;3.20;;;6.60;83.10;;;;;;5035546;28;20095;-61
2022/11/20 03:16:13;;;;;;;3.40;3.03;;;6.60;83.10;;;;;;5037745;28;20587;-62
2022/11/20 03:18:40;;;;;;;4.30;3.30;;;6.60;83.20;;;;;;5035386;28;20503;-62
2022/11/20 03:21:07;;;;;;;3.80;3.50;;;6.60;83.20;;;;;;5036506;28;20040;-62
2022/11/20 03:23:33;;;;;;;4.65;3.28;;;6.60;83.10;;;;;;5036187;28;20044;-61
2022/11/20 03:26:32;;;;;;;3.45;3.15;;;6.60;83.20;;;;;;5036464;28;20044;-61
2022/11/20 03:29:00;;;;;;;3.72;3.40;;;6.60;83.30;;;;;;5036475;28;20033;-60
2022/11/20 03:31:29;;;;;;;4.13;3.72;;;6.60;83.20;;;;;;5036309;28;20549;-60
2022/11/20 03:33:56;;;;;;;3.80;3.42;;;6.60;83.30;;;;;;5037782;28;20072;-61
2022/11/20 03:36:22;;;;;;;5.90;3.53;;;6.60;83.30;;;;;;5038716;28;20048;-60
2022/11/20 03:38:48;;;;;;;5.97;3.70;;;6.60;83.30;;;;;;5037281;28;20041;-61
2022/11/20 03:41:29;;;;;;;3.53;3.20;;;6.60;83.30;;;;;;5038132;28;20174;-61
2022/11/20 03:43:57;;;;;;;3.92;3.60;;;6.60;83.50;;;;;;5037520;28;20409;-61
2022/11/20 03:46:24;;;;;;;4.72;4.10;;;6.60;84.20;;;;;;5034031;28;20083;-60
2022/11/20 03:48:49;;;;;;;4.85;4.35;;;6.60;83.40;;;;;;5032631;28;20072;-62
2022/11/20 03:51:21;;;;;;;5.78;4.20;;;6.60;83.50;;;;;;5033946;28;20133;-61
2022/11/20 03:53:48;;;;;;;7.82;4.50;;;6.50;83.60;;;;;;5034618;28;20120;-62
2022/11/20 03:56:16;;;;;;;5.07;4.45;;;6.50;83.70;;;;;;5035388;28;20037;-62
2022/11/20 03:58:42;;;;;;;4.40;4.00;;;6.50;83.70;;;;;;5037140;28;20041;-62
2022/11/20 04:01:14;;;;;;;5.00;4.30;;;6.50;83.70;;;;;;5035802;28;20364;-60
2022/11/20 04:03:41;;;;;;;4.15;3.75;;;6.50;83.90;;;;;;5035616;28;20493;-61
2022/11/20 04:06:13;;;;;;;4.88;4.18;;;6.50;83.90;;;;;;5034332;28;20048;-60
2022/11/20 04:08:39;;;;;;;5.22;4.13;;;6.60;84.00;;;;;;5031999;28;20036;-61
2022/11/20 04:11:12;;;;;;;4.50;4.10;;;6.60;84.00;;;;;;5033126;28;20040;-61
2022/11/20 04:13:38;;;;;;;5.15;4.40;;;6.60;84.00;;;;;;5033040;28;20097;-61
2022/11/20 04:16:05;;;;;;;6.43;4.28;;;6.60;84.00;;;;;;5031782;28;20405;-61
2022/11/20 04:18:31;;;;;;;5.63;4.05;;;6.60;84.00;;;;;;5031793;28;20164;-61
2022/11/20 04:20:58;;;;;;;4.55;4.15;;;6.60;83.90;;;;;;5032418;28;20059;-60
2022/11/20 04:23:24;;;;;;;10.43;6.65;;;6.60;83.80;;;;;;5031798;28;20397;-61
2022/11/20 04:25:49;;;;;;;11.60;8.50;;;6.60;83.80;;;;;;5033842;28;20045;-62
2022/11/20 04:28:15;;;;;;;6.70;5.30;;;6.60;83.80;;;;;;5034479;28;20413;-59
2022/11/20 04:30:40;;;;;;;4.55;4.15;;;6.60;83.80;;;;;;5032308;28;20148;-61
2022/11/20 04:33:06;;;;;;;4.70;4.30;;;6.60;83.70;;;;;;5028689;28;20033;-62
2022/11/20 04:35:34;;;;;;;6.25;4.78;;;6.60;83.70;;;;;;5032175;28;20079;-61
2022/11/20 04:38:00;;;;;;;6.07;4.50;;;6.60;83.80;;;;;;5032220;28;20071;-62
2022/11/20 04:40:25;;;;;;;5.10;4.70;;;6.60;83.70;;;;;;5031748;28;20060;-62
2022/11/20 04:42:51;;;;;;;6.97;5.32;;;6.60;83.80;;;;;;5031571;28;20037;-59
2022/11/20 04:45:17;;;;;;;6.50;5.90;;;6.60;83.80;;;;;;5032626;28;20032;-61
2022/11/20 04:47:42;;;;;;;8.25;6.40;;;6.60;83.90;;;;;;5029301;28;20029;-62
2022/11/20 04:50:08;;;;;;;7.45;5.50;;;6.60;83.90;;;;;;5031082;28;20029;-60
2022/11/20 04:52:34;;;;;;;5.15;4.63;;;6.60;83.90;;;;;;5028595;28;20323;-59
2022/11/20 04:54:59;;;;;;;7.82;5.15;;;6.60;83.90;;;;;;5032613;28;20028;-59
2022/11/20 04:57:25;;;;;;;6.55;4.97;;;6.70;84.00;;;;;;5033175;28;20501;-61
2022/11/20 04:59:50;;;;;;;6.10;5.10;;;6.70;83.90;;;;;;5031625;28;20163;-62
2022/11/20 05:02:16;;;;;;;6.18;5.07;;;6.60;83.80;;;;;;5032889;28;20102;-62
2022/11/20 05:04:42;;;;;;;7.90;5.10;;;6.60;83.90;;;;;;5032097;28;20025;-61
2022/11/20 05:07:07;;;;;;;6.15;5.00;;;6.60;84.00;;;;;;5032407;28;20036;-61
2022/11/20 05:09:33;;;;;;;5.43;4.50;;;6.60;84.10;;;;;;5034866;28;20021;-61
2022/11/20 05:11:58;;;;;;;5.45;4.75;;;6.60;84.10;;;;;;5028690;28;20130;-61
2022/11/20 05:14:24;;;;;;;4.95;4.50;;;6.60;84.10;;;;;;5034585;28;20499;-60
2022/11/20 05:16:50;;;;;;;4.95;4.22;;;6.60;84.10;;;;;;5031282;28;20037;-60
2022/11/20 05:19:15;;;;;;;5.40;4.40;;;6.70;84.10;;;;;;5031854;28;20090;-60
2022/11/20 05:21:41;;;;;;;5.38;4.53;;;6.70;84.10;;;;;;5031177;28;20444;-61
2022/11/20 05:24:06;;;;;;;4.60;4.20;;;6.70;84.00;;;;;;5031477;28;20394;-60
2022/11/20 05:26:32;;;;;;;5.13;4.60;;;6.70;84.00;;;;;;5033331;28;20037;-61
2022/11/20 05:28:58;;;;;;;4.97;4.15;;;6.70;83.90;;;;;;5031967;28;20029;-61
2022/11/20 05:31:24;;;;;;;8.40;5.07;;;6.70;83.90;;;;;;5032817;28;20133;-60
2022/11/20 05:33:50;;;;;;;10.27;5.25;;;6.80;83.90;;;;;;5033525;28;20168;-59
2022/11/20 05:36:17;;;;;;;21.00;9.20;;;6.70;83.70;;;;;;5033661;28;20617;-61
2022/11/20 05:38:43;;;;;;;11.02;6.60;;;6.70;83.60;;;;;;5031031;28;20044;-61
2022/11/20 05:41:15;;;;;;;10.40;7.15;;;6.80;83.70;;;;;;5031623;28;20037;-61
2022/11/20 05:43:43;;;;;;;18.00;10.38;;;6.80;83.60;;;;;;5034688;28;20038;-61
2022/11/20 05:46:11;;;;;;;9.20;6.22;;;6.80;83.60;;;;;;5030055;28;20417;-61
2022/11/20 05:48:38;;;;;;;7.57;5.65;;;6.70;83.60;;;;;;5031046;28;20091;-61
2022/11/20 05:51:05;;;;;;;6.78;4.85;;;6.80;83.60;;;;;;5031831;28;20051;-61
2022/11/20 05:53:32;;;;;;;5.20;4.70;;;6.70;83.60;;;;;;5035085;28;20049;-60
2022/11/20 05:56:00;;;;;;;6.32;4.55;;;6.70;83.60;;;;;;5035140;28;20041;-60
2022/11/20 05:58:25;;;;;;;6.00;4.65;;;6.70;83.70;;;;;;5034915;28;20375;-61
2022/11/20 06:00:51;;;;;;;5.15;4.40;;;6.70;83.80;;;;;;5035634;28;20142;-60
2022/11/20 06:03:17;;;;;;;5.28;4.68;;;6.70;83.80;;;;;;5032656;28;20075;-61
2022/11/20 06:05:42;;;;;;;8.23;4.90;;;6.70;83.70;;;;;;5032188;28;20237;-61
2022/11/20 06:08:08;;;;;;;5.05;4.63;;;6.70;83.60;;;;;;5034029;28;20044;-60
2022/11/20 06:10:33;;;;;;;5.75;4.90;;;6.70;83.60;;;;;;5031456;28;20033;-60
2022/11/20 06:12:59;;;;;;;5.90;4.60;;;6.70;83.70;;;;;;5031909;28;20440;-60
2022/11/20 06:15:25;;;;;;;5.68;4.63;;;6.70;83.70;;;;;;5034376;28;20044;-61
2022/11/20 06:17:54;;;;;;;4.80;4.25;;;6.60;83.60;;;;;;5034359;28;20038;-61
2022/11/20 06:20:21;;;;;;;5.72;4.75;;;6.60;83.60;;;;;;5033387;28;20036;-60
2022/11/20 06:22:46;;;;;;;5.90;4.47;;;6.60;83.60;;;;;;5029275;28;20052;-61
2022/11/20 06:25:12;;;;;;;5.45;4.45;;;6.60;83.70;;;;;;5031617;28;20122;-61
2022/11/20 06:27:38;;;;;;;5.25;4.40;;;6.50;83.70;;;;;;5031407;28;20029;-60
2022/11/20 06:30:04;;;;;;;6.13;4.10;;;6.50;83.70;;;;;;5032308;28;20509;-58
2022/11/20 06:32:30;;;;;;;5.82;4.15;;;6.50;83.80;;;;;;5033037;28;20041;-61
2022/11/20 06:34:55;;;;;;;4.88;4.07;;;6.50;83.90;;;;;;5035531;28;20054;-61
2022/11/20 06:37:21;;;;;;;5.70;4.18;;;6.50;83.90;;;;;;5038116;28;20036;-60
2022/11/20 06:39:46;;;;;;;6.05;4.15;;;6.40;83.90;;;;;;5035785;28;20040;-61
2022/11/20 06:42:12;;;;;;;5.47;4.47;;;6.40;84.00;;;;;;5035134;28;20392;-61
2022/11/20 06:44:38;;;;;;;4.75;3.85;;;6.40;84.10;;;;;;5036477;28;20036;-61
2022/11/20 06:47:03;;;;;;;7.47;4.20;;;6.50;84.20;;;;;;5034874;28;20183;-61
2022/11/20 06:49:29;;;;;;;6.30;4.20;;;6.50;84.20;;;;;;5036486;28;20126;-60
2022/11/20 06:51:54;;;;;;;7.20;4.47;;;6.50;84.20;;;;;;5031665;28;20943;-61
2022/11/20 06:54:20;;;;;;;5.55;4.45;;;6.50;84.30;;;;;;5034823;28;20210;-61
2022/11/20 06:56:48;;;;;;;6.57;4.00;;;6.50;84.20;;;;;;5033657;28;20033;-61
2022/11/20 06:59:14;;;;;;;5.07;4.35;;;6.50;84.30;;;;;;5035535;28;20061;-59
2022/11/20 07:01:40;;;;;;;4.70;4.10;;;6.50;84.20;;;;;;5034142;28;20083;-60
2022/11/20 07:04:05;;;;;;;6.00;4.40;;;6.50;84.20;;;;;;5035532;28;20501;-61
2022/11/20 07:06:31;;;;;;;5.32;3.78;;;6.50;84.30;;;;;;5033012;28;20048;-60
2022/11/20 07:08:57;;;;;;;4.60;3.78;;;6.50;84.20;;;;;;5037410;28;20155;-61
2022/11/20 07:11:23;;;;;;;4.50;3.63;;;6.50;84.30;;;;;;5032388;28;20041;-59
2022/11/20 07:13:49;;;;;;;5.05;4.00;;;6.50;84.30;;;;;;5035174;28;20061;-60
2022/11/20 07:16:15;;;;;;;4.95;4.10;;;6.60;84.40;;;;;;5033818;28;20041;-60
2022/11/20 07:18:40;;;;;;;4.13;3.60;;;6.50;84.30;;;;;;5035216;28;20040;-61
2022/11/20 07:21:09;;;;;;;5.25;3.75;;;6.60;84.40;;;;;;5035727;28;20037;-61
2022/11/20 07:23:35;;;;;;;6.97;3.70;;;6.60;84.20;;;;;;5033669;28;20029;-61
2022/11/20 07:26:10;;;;;;;4.70;3.83;;;6.60;84.10;;;;;;5032470;28;20033;-61
2022/11/20 07:28:35;;;;;;;6.03;3.78;;;6.60;84.00;;;;;;5036620;28;20030;-62
2022/11/20 07:31:01;;;;;;;5.28;3.70;;;6.60;84.00;;;;;;5035755;28;20400;-61
2022/11/20 07:33:27;;;;;;;4.78;3.80;;;6.70;84.10;;;;;;5034900;28;20120;-61
2022/11/20 07:35:52;;;;;;;4.35;3.55;;;6.70;84.00;;;;;;5033603;28;20052;-61
2022/11/20 07:38:18;;;;;;;5.07;3.90;;;6.70;83.90;;;;;;5033542;28;20073;-62
2022/11/20 07:40:44;;;;;;;5.65;4.47;;;6.70;83.80;;;;;;5033530;28;20029;-61
2022/11/20 07:43:09;;;;;;;5.40;4.25;;;6.80;83.80;;;;;;5033013;28;20033;-60
2022/11/20 07:45:35;;;;;;;5.85;4.13;;;6.70;83.70;;;;;;5034784;28;20033;-62
2022/11/20 07:48:01;;;;;;;4.05;3.60;;;6.80;83.80;;;;;;5031182;28;20556;-61
2022/11/20 07:50:26;;;;;;;4.00;3.60;;;6.70;83.80;;;;;;5036518;28;20061;-62
2022/11/20 07:52:52;;;;;;;4.18;3.50;;;6.70;83.80;;;;;;5038076;28;20049;-61
2022/11/20 07:55:18;;;;;;;4.20;3.60;;;6.80;84.00;;;;;;5038647;28;20127;-60
2022/11/20 07:57:43;;;;;;;3.35;2.92;;;6.80;84.00;;;;;;5035372;28;20037;-58
2022/11/20 08:00:10;;;;;;;6.47;4.38;;;6.80;84.00;;;;;;5023887;28;20037;-61
2022/11/20 08:02:40;;;;;;;4.70;3.80;;;6.80;84.00;;;;;;5026714;28;20033;-60
2022/11/20 08:05:07;;;;;;;6.75;4.30;;;6.80;84.00;;;;;;5029990;28;20087;-60
2022/11/20 08:07:40;;;;;;;5.47;4.45;;;6.80;84.00;;;;;;5028401;28;20035;-61
2022/11/20 08:10:07;;;;;;;4.30;3.88;;;6.90;84.30;;;;;;5029686;28;20036;-61
2022/11/20 08:15:16;;;;;;;4.60;3.80;;;6.90;84.30;;;;;;5028937;28;20520;-62
2022/11/20 08:17:42;;;;;;;3.78;3.35;;;7.00;84.30;;;;;;5027121;28;20128;-62
2022/11/20 08:20:08;;;;;;;3.65;2.72;;;7.00;84.50;;;;;;5030782;28;20571;-61
2022/11/20 08:22:34;;;;;;;2.58;2.35;;;7.00;84.40;;;;;;5028688;28;20547;-61
2022/11/20 08:25:00;;;;;;;3.35;2.40;;;7.10;84.50;;;;;;5029127;28;20033;-60
2022/11/20 08:27:26;;;;;;;2.17;1.98;;;7.10;84.40;;;;;;5030586;28;20116;-61
2022/11/20 08:29:51;;;;;;;1.85;1.60;;;7.10;84.30;;;;;;5030462;28;20051;-61
2022/11/20 08:32:17;;;;;;;2.15;1.65;;;7.10;84.20;;;;;;5030669;28;20059;-61
2022/11/20 08:34:43;;;;;;;2.55;2.00;;;7.10;84.20;;;;;;5025928;28;20068;-61
2022/11/20 08:37:08;;;;;;;2.05;1.85;;;7.20;84.30;;;;;;5035474;28;20095;-62
2022/11/20 08:39:34;;;;;;;2.38;1.70;;;7.20;84.10;;;;;;5024283;28;21068;-61
2022/11/20 08:41:59;;;;;;;2.60;1.90;;;7.30;84.10;;;;;;5027903;28;20564;-60
2022/11/20 08:44:25;;;;;;;3.38;2.38;;;7.30;84.00;;;;;;5026869;28;20075;-61
2022/11/20 08:46:50;;;;;;;6.75;4.60;;;7.30;84.00;;;;;;5030260;28;20466;-62
2022/11/20 08:49:16;;;;;;;3.95;3.00;;;7.30;83.90;;;;;;5029425;28;20711;-62
2022/11/20 08:51:42;;;;;;;5.65;4.88;;;7.30;83.80;;;;;;5028605;28;20040;-60
2022/11/20 08:54:08;;;;;;;4.88;2.83;;;7.40;83.80;;;;;;5029975;28;20701;-61
2022/11/20 08:56:34;;;;;;;3.42;3.13;;;7.40;83.80;;;;;;5028508;28;20118;-62
2022/11/20 08:59:00;;;;;;;4.20;3.60;;;7.40;83.60;;;;;;5031751;28;20497;-61
2022/11/20 09:01:27;;;;;;;2.50;2.30;;;7.50;83.70;;;;;;5030419;28;20485;-61
2022/11/20 09:03:54;;;;;;;1.77;1.67;;;7.50;83.60;;;;;;5031024;28;20468;-60
2022/11/20 09:06:20;;;;;;;2.28;1.38;;;7.50;83.60;;;;;;5032214;28;20440;-61
2022/11/20 09:08:45;;;;;;;2.78;1.33;;;7.60;83.40;;;;;;5030493;28;20052;-62
2022/11/20 09:11:11;;;;;;;2.55;1.48;;;7.60;83.30;;;;;;5026825;28;20482;-61
2022/11/20 09:13:37;;;;;;;1.77;1.67;;;7.60;82.90;;;;;;5029040;28;20033;-61
2022/11/20 09:16:05;;;;;;;1.73;1.30;;;7.70;82.70;;;;;;5026419;28;20052;-61
2022/11/20 09:18:32;;;;;;;1.98;1.30;;;7.70;82.70;;;;;;5031852;28;20047;-60
2022/11/20 09:21:04;;;;;;;1.95;1.40;;;7.70;82.80;;;;;;5029280;28;20416;-61
2022/11/20 09:23:34;;;;;;;1.33;1.10;;;7.70;82.70;;;;;;5030695;28;20025;-61
2022/11/20 09:26:26;;;;;;;1.30;1.20;;;7.80;82.60;;;;;;5028859;28;20049;-61
2022/11/20 09:28:52;;;;;;;1.88;1.42;;;7.80;82.30;;;;;;5027001;28;20501;-62
2022/11/20 09:31:22;;;;;;;1.95;1.40;;;7.80;82.60;;;;;;5028714;28;20052;-60
2022/11/20 09:33:48;;;;;;;1.40;1.30;;;7.90;82.20;;;;;;5028152;28;20604;-61
2022/11/20 09:36:14;;;;;;;1.40;1.23;;;7.90;82.20;;;;;;5028416;28;20045;-61
2022/11/20 09:38:39;;;;;;;1.98;1.23;;;8.00;82.20;;;;;;5026072;28;20171;-60
2022/11/20 09:41:16;;;;;;;1.20;1.10;;;8.00;82.00;;;;;;5022453;28;20509;-61
2022/11/20 09:44:19;;;;;;;1.30;1.10;;;8.00;81.60;;;;;;5028638;28;20040;-62
2022/11/20 09:46:58;;;;;;;1.45;1.17;;;8.10;81.50;;;;;;5025997;28;20120;-62
2022/11/20 09:49:40;;;;;;;2.28;1.25;;;8.10;81.60;;;;;;5031606;28;20059;-62
2022/11/20 09:52:18;;;;;;;1.20;1.10;;;8.10;81.50;;;;;;5026694;28;20036;-61
2022/11/20 09:54:44;;;;;;;2.75;1.70;;;8.10;81.50;;;;;;5029244;28;20034;-62
2022/11/20 09:57:22;;;;;;;2.42;1.63;;;8.20;81.50;;;;;;5028947;28;20033;-61
2022/11/20 09:59:56;;;;;;;2.10;1.42;;;8.20;81.20;;;;;;5029325;28;20083;-62
2022/11/20 10:02:52;;;;;;;1.40;1.30;;;8.20;81.20;;;;;;5028305;28;20029;-61
2022/11/20 10:05:40;;;;;;;2.88;1.17;;;8.20;81.00;;;;;;5035876;28;20087;-61
2022/11/20 10:08:30;;;;;;;1.55;1.45;;;8.30;81.00;;;;;;5037453;28;20128;-62
2022/11/20 10:11:37;;;;;;;2.13;1.33;;;8.30;81.20;;;;;;5034699;28;20233;-62
2022/11/20 10:14:27;;;;;;;1.77;1.40;;;8.40;81.90;;;;;;5034163;28;20048;-62
2022/11/20 10:17:19;;;;;;;1.38;1.27;;;8.40;81.10;;;;;;5040338;28;20397;-60
2022/11/20 10:19:44;;;;;;;1.95;1.33;;;8.40;80.90;;;;;;5034711;28;20424;-62
2022/11/20 10:22:47;;;;;;;1.15;1.05;;;8.40;81.00;;;;;;5031749;28;20041;-62
2022/11/20 10:25:19;;;;;;;1.70;1.00;;;8.50;80.50;;;;;;5038285;28;20086;-60
2022/11/20 10:28:15;;;;;;;2.03;1.15;;;8.50;80.30;;;;;;5036211;28;20041;-61
2022/11/20 10:30:45;;;;;;;1.05;0.95;;;8.50;79.90;;;;;;5037157;28;20068;-61
2022/11/20 10:33:14;;;;;;;1.67;1.58;;;8.50;80.50;;;;;;5037304;28;20047;-61
2022/11/20 10:35:42;;;;;;;1.52;1.00;;;8.50;80.50;;;;;;5036196;28;20036;-62
2022/11/20 10:38:31;;;;;;;3.28;1.50;;;8.50;80.20;;;;;;5038800;28;20138;-61
2022/11/20 10:43:46;;;;;;;1.10;1.00;;;8.60;80.20;;;;;;5037578;28;20048;-61
2022/11/20 10:46:18;;;;;;;1.10;1.00;;;8.60;80.10;;;;;;5038087;28;20042;-61
2022/11/20 10:48:45;;;;;;;1.10;1.00;;;8.60;79.60;;;;;;5038926;28;20109;-61
2022/11/20 10:52:00;;;;;;;2.17;0.95;;;8.60;80.00;;;;;;5038191;28;20067;-61
2022/11/20 10:54:43;;;;;;;2.10;1.02;;;8.60;79.30;;;;;;5037403;28;20041;-61
2022/11/20 10:57:50;;;;;;;1.73;1.10;;;8.60;79.70;;;;;;5039143;28;20087;-61
2022/11/20 11:00:17;;;;;;;1.95;1.20;;;8.70;79.50;;;;;;5040371;28;20405;-61
2022/11/20 11:02:47;;;;;;;1.42;1.10;;;8.70;79.90;;;;;;5036217;28;20643;-60
2022/11/20 11:05:25;;;;;;;3.35;1.20;;;8.70;79.90;;;;;;5037257;28;20037;-62
2022/11/20 11:07:55;;;;;;;0.98;0.88;;;8.60;79.60;;;;;;5038032;28;20128;-60
2022/11/20 11:10:41;;;;;;;2.03;1.08;;;8.70;79.80;;;;;;5035504;28;20041;-62
2022/11/20 11:13:07;;;;;;;1.30;0.90;;;8.70;79.80;;;;;;5037577;28;20510;-62
2022/11/20 11:15:38;;;;;;;1.65;1.20;;;8.70;79.80;;;;;;5036562;28;20037;-62
2022/11/20 11:18:03;;;;;;;1.17;1.08;;;8.70;79.70;;;;;;5038580;28;20047;-61
2022/11/20 11:20:29;;;;;;;1.50;1.15;;;8.70;79.80;;;;;;5038167;28;20081;-61
2022/11/20 11:22:58;;;;;;;2.00;1.20;;;8.70;79.70;;;;;;5038238;28;20029;-62
2022/11/20 11:25:23;;;;;;;3.20;1.50;;;8.70;79.60;;;;;;5039717;28;20064;-62
2022/11/20 11:27:51;;;;;;;2.95;1.60;;;8.70;80.50;;;;;;5039574;28;20075;-62
2022/11/20 11:30:20;;;;;;;1.77;1.35;;;8.70;79.80;;;;;;5039446;28;20452;-62
2022/11/20 11:32:46;;;;;;;2.10;1.75;;;8.70;79.60;;;;;;5037181;28;20474;-62
2022/11/20 11:35:27;;;;;;;1.50;1.40;;;8.70;79.60;;;;;;5036975;28;20058;-60
2022/11/20 11:37:55;;;;;;;2.35;1.30;;;8.70;79.40;;;;;;5041105;28;20049;-61
2022/11/20 11:40:21;;;;;;;3.40;1.60;;;8.80;79.60;;;;;;5035221;28;20044;-62
2022/11/20 11:43:04;;;;;;;2.53;1.80;;;8.70;79.40;;;;;;5035232;28;20038;-61
2022/11/20 11:45:30;;;;;;;2.17;1.50;;;8.80;79.40;;;;;;5038089;28;20229;-62
2022/11/20 11:48:03;;;;;;;1.60;1.50;;;8.70;79.40;;;;;;5036208;28;20049;-62
2022/11/20 11:50:29;;;;;;;1.70;1.58;;;8.80;79.50;;;;;;5037726;28;20128;-62
2022/11/20 11:53:15;;;;;;;1.30;1.20;;;8.70;79.60;;;;;;5037679;28;20052;-62
2022/11/20 11:55:45;;;;;;;1.27;1.17;;;8.70;79.70;;;;;;5038326;28;20041;-61
2022/11/20 11:58:20;;;;;;;1.98;1.60;;;8.80;80.10;;;;;;5038901;28;20136;-62
2022/11/20 12:01:10;;;;;;;1.50;1.30;;;8.80;79.80;;;;;;5034401;28;20040;-62
2022/11/20 12:03:38;;;;;;;1.58;1.30;;;8.80;80.00;;;;;;5030991;28;20144;-63
2022/11/20 12:06:14;;;;;;;1.65;1.55;;;8.70;80.00;;;;;;5036706;28;20041;-61
2022/11/20 12:08:39;;;;;;;2.50;1.60;;;8.80;79.80;;;;;;5036696;28;20072;-61
2022/11/20 12:11:18;;;;;;;5.03;2.67;;;8.80;80.00;;;;;;5033964;28;20563;-62
2022/11/20 12:14:01;;;;;;;3.72;2.63;;;8.70;79.90;;;;;;5038918;28;20033;-61
2022/11/20 12:16:28;;;;;;;2.95;1.92;;;8.80;79.90;;;;;;5037842;28;20044;-60
2022/11/20 12:18:53;;;;;;;1.48;1.35;;;8.80;80.00;;;;;;5037720;28;20721;-62
2022/11/20 12:21:51;;;;;;;2.65;1.38;;;8.80;80.10;;;;;;5038324;28;20037;-60
2022/11/20 12:24:44;;;;;;;1.02;0.98;;;8.80;80.10;;;;;;5036865;28;20037;-62
2022/11/20 12:27:33;;;;;;;1.73;1.08;;;8.80;80.10;;;;;;5035717;28;20033;-61
2022/11/20 12:30:15;;;;;;;1.17;1.05;;;8.80;80.00;;;;;;5038025;28;20037;-60
2022/11/20 12:32:46;;;;;;;3.00;1.15;;;8.80;80.00;;;;;;5035971;28;20120;-62
2022/11/20 12:35:31;;;;;;;1.15;0.90;;;8.90;80.00;;;;;;5037791;28;20033;-60
2022/11/20 12:38:34;;;;;;;3.73;2.20;;;8.90;79.80;;;;;;5038328;28;20034;-62
2022/11/20 12:41:08;;;;;;;1.20;1.00;;;8.90;79.70;;;;;;5035762;28;20626;-61
2022/11/20 12:46:46;;;;;;;2.92;1.30;;;8.90;79.80;;;;;;5036839;28;20103;-62
2022/11/20 12:49:32;;;;;;;1.75;1.50;;;8.90;79.80;;;;;;5036753;28;20040;-62
2022/11/20 12:52:24;;;;;;;1.63;1.38;;;8.90;79.60;;;;;;5036134;28;20061;-61
2022/11/20 12:55:08;;;;;;;2.33;1.40;;;8.90;79.00;;;;;;5036561;28;20571;-61
2022/11/20 12:57:50;;;;;;;2.13;1.10;;;8.90;78.70;;;;;;5037980;28;20048;-61
2022/11/20 13:00:21;;;;;;;1.63;0.90;;;8.90;78.60;;;;;;5036422;28;20033;-62
2022/11/20 13:03:03;;;;;;;0.80;0.80;;;8.90;78.60;;;;;;5035497;28;20036;-61
2022/11/20 13:05:39;;;;;;;1.55;0.85;;;8.90;78.20;;;;;;5038517;28;20033;-61
2022/11/20 13:08:11;;;;;;;1.90;0.80;;;8.90;79.00;;;;;;5034703;28;20033;-61
2022/11/20 13:11:03;;;;;;;1.55;0.70;;;8.90;78.30;;;;;;5034972;28;20037;-62
2022/11/20 13:13:28;;;;;;;1.90;1.17;;;8.90;78.10;;;;;;5033669;28;20041;-61
2022/11/20 13:16:10;;;;;;;1.55;0.90;;;8.80;78.50;;;;;;5036269;28;20501;-61
2022/11/20 13:18:41;;;;;;;3.00;1.27;;;8.80;78.20;;;;;;5034597;28;20041;-62
2022/11/20 13:21:37;;;;;;;1.70;1.38;;;8.80;78.30;;;;;;5037320;28;20038;-61
2022/11/20 13:24:06;;;;;;;3.28;2.92;;;8.80;78.10;;;;;;5035616;28;20099;-61